Time;durP1;ratioP1;P1;durP2;ratioP2;P2;SDS_P1;SDS_P2;PMS_P1;PMS_P2;Temp;Humidity;BMP_temperature;BMP_pressure;BME280_temperature;BME280_humidity;BME280_pressure;Samples;Min_cycle;Max_cycle;Signal;HPM_P1;HPM_P2
2022/08/13 00:02:19;;;;;;;3.77;2.62;;;;;;;26.98;99.99;100558.22;1836125;77;21529;-78
2022/08/13 00:05:00;;;;;;;5.05;2.72;;;;;;;26.93;99.98;100559.81;1835986;77;21237;-77
2022/08/13 00:07:29;;;;;;;3.52;2.70;;;;;;;26.90;99.70;100556.09;1836754;77;21591;-77
2022/08/13 00:09:58;;;;;;;4.08;2.98;;;;;;;26.89;99.92;100552.59;1836680;77;21194;-77
2022/08/13 00:15:29;;;;;;;4.33;3.08;;;;;;;26.73;100.00;100551.97;1857276;77;21230;-77
2022/08/13 00:18:02;;;;;;;5.85;3.35;;;;;;;26.84;100.00;100554.72;1856738;77;21071;-78
2022/08/13 00:20:33;;;;;;;6.58;3.15;;;;;;;26.79;100.00;100550.21;1835994;77;21286;-78
2022/08/13 00:23:00;;;;;;;4.70;2.77;;;;;;;26.59;100.00;100543.19;1860076;77;21161;-76
2022/08/13 00:25:28;;;;;;;6.80;3.02;;;;;;;26.73;100.00;100542.74;1866579;77;21458;-76
2022/08/13 00:28:02;;;;;;;4.67;2.95;;;;;;;26.79;100.00;100544.48;1873478;76;21203;-77
2022/08/13 00:30:34;;;;;;;5.75;3.00;;;;;;;26.77;99.13;100535.00;1855562;76;21079;-76
2022/08/13 00:33:00;;;;;;;4.53;3.27;;;;;;;26.89;98.75;100547.33;1841300;76;21716;-78
2022/08/13 00:35:30;;;;;;;5.05;2.80;;;;;;;26.87;99.42;100543.12;1843188;76;21500;-78
2022/08/13 00:37:58;;;;;;;7.15;2.90;;;;;;;26.85;98.39;100542.36;1842881;76;21074;-79
2022/08/13 00:40:29;;;;;;;4.05;2.60;;;;;;;26.85;98.58;100539.73;1847586;76;21098;-79
2022/08/13 00:43:03;;;;;;;3.55;3.05;;;;;;;26.83;98.33;100541.64;1869407;76;21104;-78
2022/08/13 00:45:32;;;;;;;5.33;2.70;;;;;;;26.79;98.04;100545.80;1846928;76;21817;-79
2022/08/13 00:50:48;;;;;;;8.53;3.00;;;;;;;26.88;95.78;100539.52;1849531;76;21168;-78
2022/08/13 00:53:21;;;;;;;4.40;3.33;;;;;;;26.83;95.05;100535.87;1873656;76;21119;-79
2022/08/13 00:55:49;;;;;;;4.30;2.37;;;;;;;26.79;95.95;100531.30;1814911;77;21105;-79
2022/08/13 00:58:19;;;;;;;5.10;2.77;;;;;;;26.83;95.14;100537.69;1856435;77;21110;-79
2022/08/13 01:01:00;;;;;;;;;;;;;;;;;;;;;
2022/08/13 01:03:20;;;;;;;6.60;3.10;;;;;;;26.81;95.75;100529.89;1842445;77;21123;-79
2022/08/13 01:05:49;;;;;;;3.60;2.80;;;;;;;26.81;95.21;100535.62;1842962;77;21583;-79
2022/08/13 01:08:25;;;;;;;4.12;3.72;;;;;;;26.82;93.94;100534.20;1843339;77;21126;-79
2022/08/13 01:10:53;;;;;;;5.83;2.87;;;;;;;26.86;92.71;100534.36;1839692;76;21152;-79
2022/08/13 01:13:20;;;;;;;7.00;2.62;;;;;;;26.79;92.86;100533.94;1842542;76;21098;-79
2022/08/13 01:15:49;;;;;;;6.20;2.65;;;;;;;26.88;92.86;100530.30;1842953;76;21493;-79
2022/08/13 01:18:27;;;;;;;;;;;;;;;;;;;;;
2022/08/13 01:20:48;;;;;;;5.47;2.70;;;;;;;26.81;91.54;100534.30;1819656;77;21145;-79
2022/08/13 01:23:25;;;;;;;4.28;2.50;;;;;;;26.86;91.70;100525.13;1847550;77;21076;-79
2022/08/13 01:25:52;;;;;;;5.42;2.52;;;;;;;26.86;93.15;100521.67;1841681;77;21083;-79
2022/08/13 01:28:20;;;;;;;2.58;2.37;;;;;;;26.86;90.75;100527.77;1832104;78;21171;-79
2022/08/13 01:30:50;;;;;;;3.67;2.87;;;;;;;26.71;91.40;100523.55;1828010;77;21133;-79
2022/08/13 01:33:17;;;;;;;9.25;3.05;;;;;;;26.75;91.45;100532.46;1838278;77;21108;-79
2022/08/13 01:35:46;;;;;;;3.83;2.62;;;;;;;26.77;91.12;100524.00;1821862;77;21061;-78
2022/08/13 01:38:15;;;;;;;4.87;2.42;;;;;;;26.71;92.10;100523.08;1836658;77;21201;-79
2022/08/13 01:40:44;;;;;;;5.90;3.08;;;;;;;26.76;90.71;100528.87;1825087;77;21134;-79
2022/08/13 01:43:12;;;;;;;5.53;3.12;;;;;;;26.73;91.37;100521.66;1817018;78;21152;-77
2022/08/13 01:45:39;;;;;;;5.60;2.58;;;;;;;26.81;90.69;100525.08;1841322;77;21088;-77
2022/08/13 01:50:52;;;;;;;5.20;2.70;;;;;;;26.60;91.35;100524.28;1826689;77;21530;-77
2022/08/13 01:53:20;;;;;;;4.97;2.80;;;;;;;26.50;91.70;100511.75;1831836;77;21497;-78
2022/08/13 01:55:54;;;;;;;4.35;2.70;;;;;;;26.56;91.49;100516.22;1843851;77;21690;-78
2022/08/13 01:58:29;;;;;;;3.15;2.40;;;;;;;26.65;90.24;100520.85;1828214;77;21151;-78
2022/08/13 02:00:59;;;;;;;4.30;2.70;;;;;;;26.73;89.98;100521.17;1816977;77;21220;-78
2022/08/13 02:03:27;;;;;;;4.80;2.83;;;;;;;26.73;90.51;100509.31;1816236;77;21656;-78
2022/08/13 02:05:56;;;;;;;3.22;2.33;;;;;;;26.63;92.60;100505.64;1817527;78;21054;-77
2022/08/13 02:08:26;;;;;;;4.17;3.05;;;;;;;26.66;90.87;100504.13;1817241;77;21085;-77
2022/08/13 02:10:56;;;;;;;4.87;2.72;;;;;;;26.70;89.87;100506.91;1817701;77;21150;-77
2022/08/13 02:13:29;;;;;;;5.42;2.62;;;;;;;26.76;88.05;100503.02;1816378;77;21166;-77
2022/08/13 02:15:57;;;;;;;6.20;2.90;;;;;;;26.74;89.08;100504.44;1841508;77;21060;-77
2022/08/13 02:18:26;;;;;;;4.53;2.80;;;;;;;26.74;88.72;100500.48;1853945;77;21096;-77
2022/08/13 02:21:01;;;;;;;5.78;3.12;;;;;;;26.70;89.28;100499.47;1826947;77;21595;-78
2022/08/13 02:23:28;;;;;;;4.80;2.85;;;;;;;26.65;89.42;100493.19;1833737;77;21649;-78
2022/08/13 02:25:56;;;;;;;3.27;2.95;;;;;;;26.69;90.14;100494.66;1819798;77;21202;-77
2022/08/13 02:28:23;;;;;;;4.00;2.60;;;;;;;26.72;88.98;100502.36;1838813;77;21092;-77
2022/08/13 02:30:56;;;;;;;7.03;2.70;;;;;;;26.69;88.27;100495.98;1837668;78;21580;-78
2022/08/13 02:33:23;;;;;;;6.03;2.77;;;;;;;26.61;88.90;100491.72;1817116;77;21140;-77
2022/08/13 02:35:50;;;;;;;13.38;3.50;;;;;;;26.60;87.87;100494.84;1817184;77;21056;-77
2022/08/13 02:38:18;;;;;;;4.70;2.75;;;;;;;26.66;87.74;100490.95;1837097;77;21131;-77
2022/08/13 02:43:33;;;;;;;7.08;3.60;;;;;;;26.55;88.02;100490.83;1829620;77;21099;-77
2022/08/13 02:46:01;;;;;;;3.83;3.25;;;;;;;26.63;87.36;100491.15;1827835;78;21053;-77
2022/08/13 02:48:29;;;;;;;4.95;3.10;;;;;;;26.62;90.97;100483.70;1845892;77;21033;-77
2022/08/13 02:50:57;;;;;;;5.30;3.08;;;;;;;26.62;88.19;100490.30;1817448;78;21087;-77
2022/08/13 02:53:25;;;;;;;6.87;3.55;;;;;;;26.53;90.97;100481.25;1841311;77;21603;-77
2022/08/13 02:55:53;;;;;;;8.58;3.45;;;;;;;26.55;89.62;100489.52;1817696;77;21089;-77
2022/08/13 02:58:21;;;;;;;6.22;3.47;;;;;;;26.48;91.33;100483.34;1842402;77;21402;-77
2022/08/13 03:00:53;;;;;;;5.17;3.62;;;;;;;26.54;88.18;100495.25;1851863;77;21111;-78
2022/08/13 03:03:21;;;;;;;3.90;3.30;;;;;;;26.57;88.00;100491.55;1823584;77;21147;-77
2022/08/13 03:05:48;;;;;;;4.22;3.27;;;;;;;26.46;92.43;100486.56;1833424;77;21080;-77
2022/08/13 03:08:16;;;;;;;3.87;2.95;;;;;;;26.36;92.81;100486.80;1828960;77;21099;-78
2022/08/13 03:10:43;;;;;;;6.40;3.00;;;;;;;26.08;96.37;100476.31;1847701;78;21479;-78
2022/08/13 03:13:25;;;;;;;3.87;3.47;;;;;;;25.99;96.06;100476.44;1823227;77;21187;-78
2022/08/13 03:15:57;;;;;;;4.37;3.30;;;;;;;25.99;96.16;100472.48;1816344;78;21529;-78
2022/08/13 03:18:25;;;;;;;6.25;3.85;;;;;;;25.99;96.56;100472.48;1817602;78;21052;-78
2022/08/13 03:20:53;;;;;;;4.47;3.62;;;;;;;25.99;96.70;100467.22;1841936;77;21048;-78
2022/08/13 03:23:22;;;;;;;7.85;4.80;;;;;;;26.05;94.89;100465.13;1817450;77;21104;-78
2022/08/13 03:25:50;;;;;;;5.33;3.52;;;;;;;26.12;94.32;100471.67;1817895;77;21187;-78
2022/08/13 03:28:18;;;;;;;4.25;3.37;;;;;;;26.07;95.51;100463.25;1841175;77;21088;-78
2022/08/13 03:30:46;;;;;;;5.10;3.45;;;;;;;26.07;96.59;100457.48;1819682;77;21584;-79
2022/08/13 03:33:16;;;;;;;4.45;3.37;;;;;;;26.02;98.00;100451.23;1838713;77;21073;-79
2022/08/13 03:35:44;;;;;;;6.40;3.70;;;;;;;25.97;95.41;100461.70;1820877;78;21080;-79
2022/08/13 03:38:15;;;;;;;5.78;3.92;;;;;;;26.09;93.71;100462.66;1850441;77;21144;-78
2022/08/13 03:43:27;;;;;;;6.58;3.72;;;;;;;26.32;90.96;100470.84;1808856;78;21100;-78
2022/08/13 03:45:57;;;;;;;7.37;3.50;;;;;;;26.28;90.88;100464.45;1817320;77;21017;-79
2022/08/13 03:48:26;;;;;;;5.70;3.75;;;;;;;26.32;90.80;100462.48;1817944;77;21187;-78
2022/08/13 03:50:59;;;;;;;6.12;3.75;;;;;;;26.25;90.18;100458.08;1802424;78;21039;-79
2022/08/13 03:53:25;;;;;;;7.10;3.62;;;;;;;26.28;90.63;100449.98;1828000;77;21214;-78
2022/08/13 03:55:52;;;;;;;7.12;4.15;;;;;;;26.34;90.84;100451.35;1817144;77;21105;-78
2022/08/13 03:58:21;;;;;;;14.07;3.77;;;;;;;26.32;90.64;100449.77;1817658;78;21047;-78
2022/08/13 04:00:49;;;;;;;8.15;4.47;;;;;;;26.30;91.00;100447.73;1817318;77;21093;-78
2022/08/13 04:03:22;;;;;;;7.33;3.52;;;;;;;26.24;91.56;100445.84;1816744;77;21159;-78
2022/08/13 04:05:52;;;;;;;5.93;4.03;;;;;;;26.19;92.12;100447.95;1832882;77;21497;-78
2022/08/13 04:08:21;;;;;;;5.35;3.85;;;;;;;26.11;92.77;100445.84;1828565;77;21080;-79
2022/08/13 04:10:49;;;;;;;5.42;3.95;;;;;;;26.10;92.33;100443.31;1837201;77;21130;-78
2022/08/13 04:13:17;;;;;;;10.95;4.53;;;;;;;26.12;92.07;100442.72;1820109;77;21084;-79
2022/08/13 04:15:46;;;;;;;6.33;4.22;;;;;;;26.16;91.81;100437.61;1854898;77;21122;-79
2022/08/13 04:18:14;;;;;;;10.72;4.00;;;;;;;26.18;91.54;100443.63;1829430;77;21092;-79
2022/08/13 04:20:43;;;;;;;7.60;4.05;;;;;;;26.18;91.54;100442.31;1834308;77;21066;-79
2022/08/13 04:23:16;;;;;;;5.78;4.47;;;;;;;26.19;91.74;100436.56;1817314;77;21092;-79
2022/08/13 04:25:48;;;;;;;5.07;3.23;;;;;;;26.20;91.17;100446.98;1817403;77;21128;-79
2022/08/13 04:28:16;;;;;;;6.15;3.98;;;;;;;26.14;94.94;100431.62;1835950;78;21162;-79
2022/08/13 04:30:45;;;;;;;4.72;3.72;;;;;;;25.97;96.96;100421.76;1820862;77;21056;-79
2022/08/13 04:33:15;;;;;;;5.17;4.50;;;;;;;25.66;100.00;100405.83;1833055;78;21115;-79
2022/08/13 04:35:44;;;;;;;4.78;3.87;;;;;;;25.50;100.00;100401.07;1833254;78;21483;-79
2022/08/13 04:38:13;;;;;;;9.38;4.00;;;;;;;25.25;100.00;100394.77;1821411;78;21093;-79
2022/08/13 04:40:43;;;;;;;4.20;3.55;;;;;;;25.13;100.00;100385.02;1798648;80;21052;-79
2022/08/13 04:43:11;;;;;;;6.42;3.77;;;;;;;24.98;100.00;100380.27;1799426;78;21544;-78
2022/08/13 04:45:40;;;;;;;6.28;4.03;;;;;;;24.81;100.00;100373.41;1768203;80;21036;-77
2022/08/13 04:48:12;;;;;;;5.72;4.22;;;;;;;24.72;100.00;100390.61;1806709;78;21127;-77
2022/08/13 04:50:42;;;;;;;5.20;3.92;;;;;;;24.66;100.00;100377.38;1877793;75;21184;-78
2022/08/13 04:53:12;;;;;;;6.17;4.20;;;;;;;24.60;100.00;100389.11;1873926;76;21041;-78
2022/08/13 04:55:40;;;;;;;6.60;4.53;;;;;;;24.65;100.00;100394.09;1867741;75;21039;-77
2022/08/13 04:58:08;;;;;;;5.55;4.00;;;;;;;24.64;100.00;100377.93;1876614;75;21493;-76
2022/08/13 05:00:36;;;;;;;7.25;4.28;;;;;;;24.63;100.00;100386.76;1874835;76;21108;-77
2022/08/13 05:03:21;;;;;;;8.00;4.35;;;;;;;24.78;100.00;100384.95;1873999;75;21174;-77
2022/08/13 05:05:51;;;;;;;7.55;4.40;;;;;;;24.98;100.00;100395.58;1862290;75;21410;-77
2022/08/13 05:08:19;;;;;;;5.70;3.75;;;;;;;24.87;100.00;100387.52;1877694;75;21139;-77
2022/08/13 05:10:53;;;;;;;8.78;3.95;;;;;;;24.80;100.00;100384.41;1878035;75;21059;-79
2022/08/13 05:13:27;;;;;;;7.10;4.55;;;;;;;24.76;100.00;100393.42;1874641;76;21682;-80
2022/08/13 05:16:00;;;;;;;9.45;4.15;;;;;;;24.81;100.00;100393.11;1871938;76;21053;-78
2022/08/13 05:18:29;;;;;;;7.92;4.62;;;;;;;24.86;100.00;100389.78;1875139;75;22257;-78
2022/08/13 05:20:59;;;;;;;5.45;4.33;;;;;;;25.09;100.00;100398.84;1874260;76;21197;-78
2022/08/13 05:23:27;;;;;;;8.88;4.75;;;;;;;25.09;100.00;100396.20;1856738;75;21190;-78
2022/08/13 05:25:55;;;;;;;5.40;4.42;;;;;;;25.12;100.00;100392.08;1838472;76;21104;-78
2022/08/13 05:28:22;;;;;;;6.53;4.28;;;;;;;25.30;100.00;100408.09;1874848;76;21107;-78
2022/08/13 05:30:51;;;;;;;11.35;4.97;;;;;;;25.40;100.00;100397.34;1908380;74;21608;-78
2022/08/13 05:33:20;;;;;;;10.32;4.20;;;;;;;25.29;100.00;100390.16;1900688;74;21214;-78
2022/08/13 05:35:50;;;;;;;6.85;4.00;;;;;;;25.30;100.00;100380.00;1897839;74;22665;-78
2022/08/13 05:38:22;;;;;;;6.40;4.33;;;;;;;25.38;100.00;100382.97;1892895;74;21111;-78
2022/08/13 05:40:56;;;;;;;5.37;4.40;;;;;;;25.44;100.00;100392.75;1897751;74;21534;-77
2022/08/13 05:43:22;;;;;;;8.75;4.53;;;;;;;25.42;100.00;100388.89;1901947;74;21675;-77
2022/08/13 05:45:59;;;;;;;8.88;4.67;;;;;;;25.45;100.00;100400.54;1894843;74;21131;-78
2022/08/13 05:48:28;;;;;;;7.85;4.50;;;;;;;25.57;100.00;100395.39;1891902;74;21595;-79
2022/08/13 05:51:07;;;;;;;7.85;4.30;;;;;;;25.62;100.00;100402.08;1905329;74;21036;-78
2022/08/13 05:53:43;;;;;;;7.53;4.40;;;;;;;25.74;100.00;100398.27;1879197;74;21652;-78
2022/08/13 18:19:16;;;;;;;;;;;;;;;;;;;;;
2022/08/13 18:26:58;;;;;;;;;;;;;;;;;;;;;
2022/08/13 18:30:15;;;;;;;;;;;;;;;;;;;;;
2022/08/13 18:40:36;;;;;;;;;;;;;;;;;;;;;
2022/08/13 18:50:15;;;;;;;13.08;4.40;;;;;;;26.82;100.00;99909.67;1599829;87;21576;-78
2022/08/13 18:52:45;;;;;;;14.05;4.78;;;;;;;26.60;100.00;99845.98;1624417;87;21311;-77
2022/08/13 20:45:40;;;;;;;8.55;4.97;;;;;;;23.12;100.00;99586.64;1819686;76;21081;-78
2022/08/13 20:58:59;;;;;;;;;;;;;;;;;;;;;
2022/08/13 21:01:36;;;;;;;;;;;;;;;;;;;;;
2022/08/13 21:03:57;;;;;;;;;;;;;;;23.44;100.00;99751.38;1670111;83;21230;-78
2022/08/13 21:06:44;;;;;;;;;;;;;;;;;;;;;
2022/08/13 21:39:50;;;;;;;12.03;5.62;;;;;;;22.99;100.00;99574.87;1757649;79;22102;-79
2022/08/13 21:44:48;;;;;;;10.23;5.67;;;;;;;22.73;100.00;99539.93;1763505;78;21170;-79
2022/08/13 21:47:17;;;;;;;8.98;5.72;;;;;;;22.68;100.00;99555.97;1892075;75;21028;-80
2022/08/13 21:49:44;;;;;;;10.72;5.12;;;;;;;22.58;100.00;99549.64;1859258;75;21040;-80
2022/08/13 22:12:30;;;;;;;9.30;5.12;;;;;;;22.60;100.00;99438.67;1677327;84;21156;-80
2022/08/13 22:14:56;;;;;;;7.53;5.17;;;;;;;22.42;100.00;99425.86;1694071;82;21192;-79
2022/08/13 22:17:29;;;;;;;7.25;5.00;;;;;;;22.45;100.00;99403.03;1713581;83;21137;-79
2022/08/13 22:19:57;;;;;;;7.37;5.37;;;;;;;22.45;100.00;99403.03;1738966;81;21112;-79
2022/08/13 22:22:55;;;;;;;;;;;;;;;;;;;;;
2022/08/13 22:25:29;;;;;;;9.40;6.00;;;;;;;22.54;100.00;99390.16;1694873;84;21205;-79
2022/08/13 22:31:10;;;;;;;;;;;;;;;;;;;;;
2022/08/13 22:56:07;;;;;;;;;;;;;;;;;;;;;
2022/08/13 23:01:15;;;;;;;8.23;5.50;;;;;;;22.55;100.00;99401.48;1798932;77;21165;-77
2022/08/13 23:03:39;;;;;;;7.75;5.08;;;;;;;22.52;100.00;99404.30;1846868;76;21179;-77
2022/08/13 23:06:09;;;;;;;10.35;5.15;;;;;;;22.45;100.00;99406.95;1871363;76;21033;-77
2022/08/13 23:08:40;;;;;;;10.10;4.78;;;;;;;22.53;100.00;99399.45;1915035;74;21143;-77
2022/08/13 23:11:10;;;;;;;8.30;4.80;;;;;;;22.53;100.00;99415.98;1932887;74;21078;-77
2022/08/13 23:13:38;;;;;;;7.78;5.05;;;;;;;22.67;100.00;99415.55;1894030;73;21198;-77
2022/08/13 23:16:06;;;;;;;7.62;4.97;;;;;;;22.52;100.00;99421.31;1922073;74;21052;-77
2022/08/13 23:18:33;;;;;;;7.90;5.22;;;;;;;22.49;100.00;99417.58;1913394;74;21150;-77
2022/08/13 23:21:01;;;;;;;9.53;5.65;;;;;;;22.61;100.00;99419.89;1913553;74;21072;-77
2022/08/13 23:23:28;;;;;;;9.63;4.92;;;;;;;22.61;100.00;99415.50;1898164;75;21156;-77
2022/08/13 23:25:55;;;;;;;7.33;5.53;;;;;;;22.53;100.00;99422.52;1909087;74;21123;-77
2022/08/13 23:28:23;;;;;;;10.03;4.60;;;;;;;22.54;100.00;99428.11;1931986;74;21463;-77
2022/08/13 23:30:51;;;;;;;5.70;4.30;;;;;;;22.52;100.00;99441.78;1892820;75;21061;-77
2022/08/13 23:33:27;;;;;;;10.68;5.08;;;;;;;22.51;100.00;99436.19;1854716;77;21065;-79
2022/08/13 23:36:01;;;;;;;7.03;5.00;;;;;;;22.45;100.00;99429.20;1769163;77;21237;-77
